sensor_id;sensor_type;location;lat;lon;timestamp;temperature;humidity
45066;DHT22;30830;53.704;10.004;2023-02-14T00:00:17;4.70;99.90
45066;DHT22;30830;53.704;10.004;2023-02-14T00:02:43;4.70;99.90
45066;DHT22;30830;53.704;10.004;2023-02-14T00:05:09;4.70;99.90
45066;DHT22;30830;53.704;10.004;2023-02-14T00:07:34;4.70;99.90
45066;DHT22;30830;53.704;10.004;2023-02-14T00:10:00;4.70;99.90
45066;DHT22;30830;53.704;10.004;2023-02-14T00:12:26;4.70;99.90
45066;DHT22;30830;53.704;10.004;2023-02-14T00:14:51;4.70;99.90
45066;DHT22;30830;53.704;10.004;2023-02-14T00:17:36;4.70;99.90
45066;DHT22;30830;53.704;10.004;2023-02-14T00:20:01;4.70;99.90
45066;DHT22;30830;53.704;10.004;2023-02-14T00:22:27;4.70;99.90
45066;DHT22;30830;53.704;10.004;2023-02-14T00:24:53;4.70;99.90
45066;DHT22;30830;53.704;10.004;2023-02-14T00:27:18;4.60;99.90
45066;DHT22;30830;53.704;10.004;2023-02-14T00:29:44;4.70;99.90
45066;DHT22;30830;53.704;10.004;2023-02-14T00:32:09;4.70;99.90
45066;DHT22;30830;53.704;10.004;2023-02-14T00:34:35;4.60;99.90
45066;DHT22;30830;53.704;10.004;2023-02-14T00:37:01;4.70;99.90
45066;DHT22;30830;53.704;10.004;2023-02-14T00:39:27;4.60;99.90
45066;DHT22;30830;53.704;10.004;2023-02-14T00:41:52;4.60;99.90
45066;DHT22;30830;53.704;10.004;2023-02-14T00:44:18;4.60;99.90
45066;DHT22;30830;53.704;10.004;2023-02-14T00:46:44;4.60;99.90
45066;DHT22;30830;53.704;10.004;2023-02-14T00:49:10;4.60;99.90
45066;DHT22;30830;53.704;10.004;2023-02-14T00:51:35;4.60;99.90
45066;DHT22;30830;53.704;10.004;2023-02-14T00:54:01;4.60;99.90
45066;DHT22;30830;53.704;10.004;2023-02-14T00:56:27;4.60;99.90
45066;DHT22;30830;53.704;10.004;2023-02-14T00:58:53;4.60;99.90
45066;DHT22;30830;53.704;10.004;2023-02-14T01:01:19;4.60;99.90
45066;DHT22;30830;53.704;10.004;2023-02-14T01:03:45;4.60;99.90
45066;DHT22;30830;53.704;10.004;2023-02-14T01:06:11;4.60;99.90
45066;DHT22;30830;53.704;10.004;2023-02-14T01:08:36;4.60;99.90
45066;DHT22;30830;53.704;10.004;2023-02-14T01:11:10;4.60;99.90
45066;DHT22;30830;53.704;10.004;2023-02-14T01:13:36;4.60;99.90
45066;DHT22;30830;53.704;10.004;2023-02-14T01:16:07;4.60;99.90
45066;DHT22;30830;53.704;10.004;2023-02-14T01:18:34;4.60;99.90
45066;DHT22;30830;53.704;10.004;2023-02-14T01:21:11;4.60;99.90
45066;DHT22;30830;53.704;10.004;2023-02-14T01:23:37;4.60;99.90
45066;DHT22;30830;53.704;10.004;2023-02-14T01:26:04;4.60;99.90
45066;DHT22;30830;53.704;10.004;2023-02-14T01:28:30;4.50;99.90
45066;DHT22;30830;53.704;10.004;2023-02-14T01:30:56;4.50;99.90
45066;DHT22;30830;53.704;10.004;2023-02-14T01:33:22;4.50;99.90
45066;DHT22;30830;53.704;10.004;2023-02-14T01:35:47;4.50;99.90
45066;DHT22;30830;53.704;10.004;2023-02-14T01:38:13;4.50;99.90
45066;DHT22;30830;53.704;10.004;2023-02-14T01:40:44;4.50;99.90
45066;DHT22;30830;53.704;10.004;2023-02-14T01:43:16;4.50;99.90
45066;DHT22;30830;53.704;10.004;2023-02-14T01:45:42;4.50;99.90
45066;DHT22;30830;53.704;10.004;2023-02-14T01:48:08;4.50;99.90
45066;DHT22;30830;53.704;10.004;2023-02-14T01:50:37;4.50;99.90
45066;DHT22;30830;53.704;10.004;2023-02-14T01:53:10;4.50;99.90
45066;DHT22;30830;53.704;10.004;2023-02-14T01:55:45;4.50;99.90
45066;DHT22;30830;53.704;10.004;2023-02-14T01:58:18;4.50;99.90
45066;DHT22;30830;53.704;10.004;2023-02-14T02:00:45;4.50;99.90
45066;DHT22;30830;53.704;10.004;2023-02-14T02:03:29;4.50;99.90
45066;DHT22;30830;53.704;10.004;2023-02-14T02:06:18;4.50;99.90
45066;DHT22;30830;53.704;10.004;2023-02-14T02:08:58;4.50;99.90
45066;DHT22;30830;53.704;10.004;2023-02-14T02:11:26;4.40;99.90
45066;DHT22;30830;53.704;10.004;2023-02-14T02:13:52;4.40;99.90
45066;DHT22;30830;53.704;10.004;2023-02-14T02:16:21;4.40;99.90
45066;DHT22;30830;53.704;10.004;2023-02-14T02:33:53;4.40;99.90
45066;DHT22;30830;53.704;10.004;2023-02-14T02:39:10;4.30;99.90
45066;DHT22;30830;53.704;10.004;2023-02-14T02:44:43;4.40;99.90
45066;DHT22;30830;53.704;10.004;2023-02-14T02:50:10;4.30;99.90
45066;DHT22;30830;53.704;10.004;2023-02-14T02:53:24;4.30;99.90
45066;DHT22;30830;53.704;10.004;2023-02-14T02:56:26;4.30;99.90
45066;DHT22;30830;53.704;10.004;2023-02-14T02:59:16;4.30;99.90
45066;DHT22;30830;53.704;10.004;2023-02-14T03:01:53;4.30;99.90
45066;DHT22;30830;53.704;10.004;2023-02-14T03:04:20;4.20;99.90
45066;DHT22;30830;53.704;10.004;2023-02-14T03:07:06;4.20;99.90
45066;DHT22;30830;53.704;10.004;2023-02-14T03:09:55;4.20;99.90
45066;DHT22;30830;53.704;10.004;2023-02-14T03:13:11;4.20;99.90
45066;DHT22;30830;53.704;10.004;2023-02-14T03:15:51;4.20;99.90
45066;DHT22;30830;53.704;10.004;2023-02-14T03:18:43;4.20;99.90
45066;DHT22;30830;53.704;10.004;2023-02-14T03:37:51;4.10;99.90
45066;DHT22;30830;53.704;10.004;2023-02-14T03:40:24;4.10;99.90
45066;DHT22;30830;53.704;10.004;2023-02-14T03:42:55;4.10;99.90
45066;DHT22;30830;53.704;10.004;2023-02-14T03:45:26;4.10;99.90
45066;DHT22;30830;53.704;10.004;2023-02-14T03:47:54;4.10;99.90
45066;DHT22;30830;53.704;10.004;2023-02-14T03:50:21;4.10;99.90
45066;DHT22;30830;53.704;10.004;2023-02-14T03:52:50;4.10;99.90
45066;DHT22;30830;53.704;10.004;2023-02-14T03:55:21;4.10;99.90
45066;DHT22;30830;53.704;10.004;2023-02-14T03:58:08;4.00;99.90
45066;DHT22;30830;53.704;10.004;2023-02-14T04:00:36;4.10;99.90
45066;DHT22;30830;53.704;10.004;2023-02-14T04:03:10;4.00;99.90
45066;DHT22;30830;53.704;10.004;2023-02-14T04:05:38;4.00;99.90
45066;DHT22;30830;53.704;10.004;2023-02-14T04:08:08;4.10;99.90
45066;DHT22;30830;53.704;10.004;2023-02-14T04:10:34;4.10;99.90
45066;DHT22;30830;53.704;10.004;2023-02-14T04:13:00;4.00;99.90
45066;DHT22;30830;53.704;10.004;2023-02-14T04:15:26;4.00;99.90
45066;DHT22;30830;53.704;10.004;2023-02-14T04:17:51;4.00;99.90
45066;DHT22;30830;53.704;10.004;2023-02-14T04:20:35;4.00;99.90
45066;DHT22;30830;53.704;10.004;2023-02-14T04:23:02;4.00;99.90
45066;DHT22;30830;53.704;10.004;2023-02-14T04:25:27;4.00;99.90
45066;DHT22;30830;53.704;10.004;2023-02-14T04:27:53;4.00;99.90
45066;DHT22;30830;53.704;10.004;2023-02-14T04:30:18;4.00;99.90
45066;DHT22;30830;53.704;10.004;2023-02-14T04:32:46;3.90;99.90
45066;DHT22;30830;53.704;10.004;2023-02-14T04:35:11;4.00;99.90
45066;DHT22;30830;53.704;10.004;2023-02-14T04:37:37;4.00;99.90
45066;DHT22;30830;53.704;10.004;2023-02-14T04:40:04;3.90;99.90
45066;DHT22;30830;53.704;10.004;2023-02-14T04:42:29;4.00;99.90
45066;DHT22;30830;53.704;10.004;2023-02-14T04:44:55;3.90;99.90
45066;DHT22;30830;53.704;10.004;2023-02-14T04:47:20;4.00;99.90
45066;DHT22;30830;53.704;10.004;2023-02-14T04:49:46;4.00;99.90
45066;DHT22;30830;53.704;10.004;2023-02-14T04:52:12;4.00;99.90
45066;DHT22;30830;53.704;10.004;2023-02-14T04:54:37;3.90;99.90
45066;DHT22;30830;53.704;10.004;2023-02-14T04:57:03;4.00;99.90
45066;DHT22;30830;53.704;10.004;2023-02-14T04:59:28;3.90;99.90
45066;DHT22;30830;53.704;10.004;2023-02-14T05:01:54;4.00;99.90
45066;DHT22;30830;53.704;10.004;2023-02-14T05:04:20;4.00;99.90
45066;DHT22;30830;53.704;10.004;2023-02-14T05:06:45;3.90;99.90
45066;DHT22;30830;53.704;10.004;2023-02-14T05:09:11;4.00;99.90
45066;DHT22;30830;53.704;10.004;2023-02-14T05:11:37;3.90;99.90
45066;DHT22;30830;53.704;10.004;2023-02-14T05:14:02;3.90;99.90
45066;DHT22;30830;53.704;10.004;2023-02-14T05:16:29;3.90;99.90
45066;DHT22;30830;53.704;10.004;2023-02-14T05:18:55;4.00;99.90
45066;DHT22;30830;53.704;10.004;2023-02-14T05:21:20;3.90;99.90
45066;DHT22;30830;53.704;10.004;2023-02-14T05:23:46;3.90;99.90
45066;DHT22;30830;53.704;10.004;2023-02-14T05:26:14;3.90;99.90
45066;DHT22;30830;53.704;10.004;2023-02-14T05:28:40;3.90;99.90
45066;DHT22;30830;53.704;10.004;2023-02-14T05:31:07;3.90;99.90
45066;DHT22;30830;53.704;10.004;2023-02-14T05:33:33;3.90;99.90
45066;DHT22;30830;53.704;10.004;2023-02-14T05:35:58;3.90;99.90
45066;DHT22;30830;53.704;10.004;2023-02-14T05:38:25;3.90;99.90
45066;DHT22;30830;53.704;10.004;2023-02-14T05:40:51;3.90;99.90
45066;DHT22;30830;53.704;10.004;2023-02-14T05:43:16;3.90;99.90
45066;DHT22;30830;53.704;10.004;2023-02-14T05:45:42;3.90;99.90
45066;DHT22;30830;53.704;10.004;2023-02-14T05:48:08;3.90;99.90
45066;DHT22;30830;53.704;10.004;2023-02-14T05:50:33;3.90;99.90
45066;DHT22;30830;53.704;10.004;2023-02-14T05:52:59;3.90;99.90
45066;DHT22;30830;53.704;10.004;2023-02-14T05:55:25;3.90;99.90
45066;DHT22;30830;53.704;10.004;2023-02-14T05:57:51;3.90;99.90
45066;DHT22;30830;53.704;10.004;2023-02-14T06:00:17;3.80;99.90
45066;DHT22;30830;53.704;10.004;2023-02-14T06:02:43;3.80;99.90
45066;DHT22;30830;53.704;10.004;2023-02-14T06:05:11;3.90;99.90
45066;DHT22;30830;53.704;10.004;2023-02-14T06:07:37;3.90;99.90
45066;DHT22;30830;53.704;10.004;2023-02-14T06:10:03;3.90;99.90
45066;DHT22;30830;53.704;10.004;2023-02-14T06:12:28;3.90;99.90
45066;DHT22;30830;53.704;10.004;2023-02-14T06:14:54;3.90;99.90
45066;DHT22;30830;53.704;10.004;2023-02-14T06:17:19;3.90;99.90
45066;DHT22;30830;53.704;10.004;2023-02-14T06:19:45;3.80;99.90
45066;DHT22;30830;53.704;10.004;2023-02-14T06:22:10;3.80;99.90
45066;DHT22;30830;53.704;10.004;2023-02-14T06:24:36;3.80;99.90
45066;DHT22;30830;53.704;10.004;2023-02-14T06:27:02;3.80;99.90
45066;DHT22;30830;53.704;10.004;2023-02-14T06:29:27;3.80;99.90
45066;DHT22;30830;53.704;10.004;2023-02-14T06:31:53;3.80;99.90
45066;DHT22;30830;53.704;10.004;2023-02-14T06:34:18;3.80;99.90
45066;DHT22;30830;53.704;10.004;2023-02-14T06:36:44;3.90;99.90
45066;DHT22;30830;53.704;10.004;2023-02-14T06:39:10;3.80;99.90
45066;DHT22;30830;53.704;10.004;2023-02-14T06:41:35;3.90;99.90
45066;DHT22;30830;53.704;10.004;2023-02-14T06:44:01;3.90;99.90
45066;DHT22;30830;53.704;10.004;2023-02-14T06:46:27;3.90;99.90
45066;DHT22;30830;53.704;10.004;2023-02-14T06:48:52;3.90;99.90
45066;DHT22;30830;53.704;10.004;2023-02-14T06:51:18;3.90;99.90
45066;DHT22;30830;53.704;10.004;2023-02-14T06:53:44;3.80;99.90
45066;DHT22;30830;53.704;10.004;2023-02-14T06:56:09;3.90;99.90
45066;DHT22;30830;53.704;10.004;2023-02-14T06:58:35;3.90;99.90
45066;DHT22;30830;53.704;10.004;2023-02-14T07:01:01;3.90;99.90
45066;DHT22;30830;53.704;10.004;2023-02-14T07:03:26;3.90;99.90
45066;DHT22;30830;53.704;10.004;2023-02-14T07:05:52;3.90;99.90
45066;DHT22;30830;53.704;10.004;2023-02-14T07:08:18;4.00;99.90
45066;DHT22;30830;53.704;10.004;2023-02-14T07:10:45;3.90;99.90
45066;DHT22;30830;53.704;10.004;2023-02-14T07:13:12;3.90;99.90
45066;DHT22;30830;53.704;10.004;2023-02-14T07:15:37;3.90;99.90
45066;DHT22;30830;53.704;10.004;2023-02-14T07:18:04;3.90;99.90
45066;DHT22;30830;53.704;10.004;2023-02-14T07:20:29;3.90;99.90
45066;DHT22;30830;53.704;10.004;2023-02-14T07:22:55;4.00;99.90
45066;DHT22;30830;53.704;10.004;2023-02-14T07:25:20;3.90;99.90
45066;DHT22;30830;53.704;10.004;2023-02-14T07:27:46;4.00;99.90
45066;DHT22;30830;53.704;10.004;2023-02-14T07:30:12;4.00;99.90
45066;DHT22;30830;53.704;10.004;2023-02-14T07:32:39;4.00;99.90
45066;DHT22;30830;53.704;10.004;2023-02-14T07:35:06;4.00;99.90
45066;DHT22;30830;53.704;10.004;2023-02-14T07:37:33;4.10;99.90
45066;DHT22;30830;53.704;10.004;2023-02-14T07:39:58;4.10;99.90
45066;DHT22;30830;53.704;10.004;2023-02-14T07:42:24;4.10;99.90
45066;DHT22;30830;53.704;10.004;2023-02-14T07:44:49;4.10;99.90
45066;DHT22;30830;53.704;10.004;2023-02-14T07:47:15;4.10;99.90
45066;DHT22;30830;53.704;10.004;2023-02-14T07:49:41;4.10;99.90
45066;DHT22;30830;53.704;10.004;2023-02-14T07:52:06;4.20;99.90
45066;DHT22;30830;53.704;10.004;2023-02-14T07:54:33;4.20;99.90
45066;DHT22;30830;53.704;10.004;2023-02-14T07:56:58;4.20;99.90
45066;DHT22;30830;53.704;10.004;2023-02-14T07:59:24;4.20;99.90
45066;DHT22;30830;53.704;10.004;2023-02-14T08:01:50;4.20;99.90
45066;DHT22;30830;53.704;10.004;2023-02-14T08:04:16;4.30;99.90
45066;DHT22;30830;53.704;10.004;2023-02-14T08:06:42;4.30;99.90
45066;DHT22;30830;53.704;10.004;2023-02-14T08:09:08;4.30;99.90
45066;DHT22;30830;53.704;10.004;2023-02-14T08:11:35;4.40;99.90
45066;DHT22;30830;53.704;10.004;2023-02-14T08:14:20;4.40;99.90
45066;DHT22;30830;53.704;10.004;2023-02-14T08:16:45;4.40;99.90
45066;DHT22;30830;53.704;10.004;2023-02-14T08:19:11;4.50;99.90
45066;DHT22;30830;53.704;10.004;2023-02-14T08:21:36;4.50;99.90
45066;DHT22;30830;53.704;10.004;2023-02-14T08:24:02;4.50;99.90
45066;DHT22;30830;53.704;10.004;2023-02-14T08:26:28;4.60;99.90
45066;DHT22;30830;53.704;10.004;2023-02-14T08:28:56;4.60;99.90
45066;DHT22;30830;53.704;10.004;2023-02-14T08:33:49;4.70;99.90
45066;DHT22;30830;53.704;10.004;2023-02-14T08:36:15;4.70;99.90
45066;DHT22;30830;53.704;10.004;2023-02-14T08:38:42;4.80;99.90
45066;DHT22;30830;53.704;10.004;2023-02-14T08:41:10;4.90;99.90
45066;DHT22;30830;53.704;10.004;2023-02-14T08:43:35;4.90;99.90
45066;DHT22;30830;53.704;10.004;2023-02-14T08:46:01;5.00;99.90
45066;DHT22;30830;53.704;10.004;2023-02-14T08:48:27;5.00;99.90
45066;DHT22;30830;53.704;10.004;2023-02-14T08:50:52;5.00;99.90
45066;DHT22;30830;53.704;10.004;2023-02-14T08:53:18;5.10;99.90
45066;DHT22;30830;53.704;10.004;2023-02-14T08:55:43;5.20;99.90
45066;DHT22;30830;53.704;10.004;2023-02-14T08:58:09;5.20;99.90
45066;DHT22;30830;53.704;10.004;2023-02-14T09:00:35;5.30;99.90
45066;DHT22;30830;53.704;10.004;2023-02-14T09:03:00;5.40;99.90
45066;DHT22;30830;53.704;10.004;2023-02-14T09:05:26;5.50;99.90
45066;DHT22;30830;53.704;10.004;2023-02-14T09:07:52;5.70;99.90
45066;DHT22;30830;53.704;10.004;2023-02-14T09:10:20;5.80;99.90
45066;DHT22;30830;53.704;10.004;2023-02-14T09:12:46;5.90;99.90
45066;DHT22;30830;53.704;10.004;2023-02-14T09:15:12;6.00;99.90
45066;DHT22;30830;53.704;10.004;2023-02-14T09:17:38;6.10;99.90
45066;DHT22;30830;53.704;10.004;2023-02-14T09:20:05;6.20;99.90
45066;DHT22;30830;53.704;10.004;2023-02-14T09:22:32;6.20;99.90
45066;DHT22;30830;53.704;10.004;2023-02-14T09:24:59;6.30;99.90
45066;DHT22;30830;53.704;10.004;2023-02-14T09:27:24;6.40;99.90
45066;DHT22;30830;53.704;10.004;2023-02-14T09:29:50;6.40;99.90
45066;DHT22;30830;53.704;10.004;2023-02-14T09:32:16;6.50;99.90
45066;DHT22;30830;53.704;10.004;2023-02-14T09:34:41;6.60;99.90
45066;DHT22;30830;53.704;10.004;2023-02-14T09:37:10;6.60;99.90
45066;DHT22;30830;53.704;10.004;2023-02-14T09:39:36;6.60;99.90
45066;DHT22;30830;53.704;10.004;2023-02-14T09:49:42;6.90;99.90
45066;DHT22;30830;53.704;10.004;2023-02-14T09:52:12;7.00;99.90
45066;DHT22;30830;53.704;10.004;2023-02-14T09:54:41;7.10;99.90
45066;DHT22;30830;53.704;10.004;2023-02-14T10:00:02;7.30;99.90
45066;DHT22;30830;53.704;10.004;2023-02-14T10:05:16;7.40;99.90
45066;DHT22;30830;53.704;10.004;2023-02-14T10:10:30;7.50;99.90
45066;DHT22;30830;53.704;10.004;2023-02-14T10:13:12;7.60;99.90
45066;DHT22;30830;53.704;10.004;2023-02-14T10:15:44;7.70;99.90
45066;DHT22;30830;53.704;10.004;2023-02-14T10:18:26;7.70;99.90
45066;DHT22;30830;53.704;10.004;2023-02-14T10:20:55;7.80;99.90
45066;DHT22;30830;53.704;10.004;2023-02-14T10:23:40;7.90;99.90
45066;DHT22;30830;53.704;10.004;2023-02-14T10:26:23;7.90;99.90
45066;DHT22;30830;53.704;10.004;2023-02-14T10:28:50;7.90;99.90
45066;DHT22;30830;53.704;10.004;2023-02-14T10:31:25;8.00;99.90
45066;DHT22;30830;53.704;10.004;2023-02-14T10:33:55;8.00;99.90
45066;DHT22;30830;53.704;10.004;2023-02-14T10:42:57;8.10;99.90
45066;DHT22;30830;53.704;10.004;2023-02-14T10:45:40;8.20;99.90
45066;DHT22;30830;53.704;10.004;2023-02-14T10:48:29;8.20;99.90
45066;DHT22;30830;53.704;10.004;2023-02-14T10:51:22;8.30;99.90
45066;DHT22;30830;53.704;10.004;2023-02-14T10:56:41;8.30;99.90
45066;DHT22;30830;53.704;10.004;2023-02-14T10:59:30;8.40;99.90
45066;DHT22;30830;53.704;10.004;2023-02-14T11:01:59;8.40;99.90
45066;DHT22;30830;53.704;10.004;2023-02-14T11:04:26;8.50;99.90
45066;DHT22;30830;53.704;10.004;2023-02-14T11:06:52;8.60;99.90
45066;DHT22;30830;53.704;10.004;2023-02-14T11:09:18;8.70;99.90
45066;DHT22;30830;53.704;10.004;2023-02-14T11:11:49;8.70;99.90
45066;DHT22;30830;53.704;10.004;2023-02-14T11:14:30;8.70;99.90
45066;DHT22;30830;53.704;10.004;2023-02-14T11:16:57;8.70;99.90
45066;DHT22;30830;53.704;10.004;2023-02-14T11:19:32;8.60;99.90
45066;DHT22;30830;53.704;10.004;2023-02-14T11:22:03;8.70;99.90
45066;DHT22;30830;53.704;10.004;2023-02-14T11:24:35;8.70;99.90
45066;DHT22;30830;53.704;10.004;2023-02-14T11:39:51;8.80;99.90
45066;DHT22;30830;53.704;10.004;2023-02-14T11:42:40;8.80;99.90
45066;DHT22;30830;53.704;10.004;2023-02-14T11:45:09;8.80;99.90
45066;DHT22;30830;53.704;10.004;2023-02-14T11:50:31;8.80;99.90
45066;DHT22;30830;53.704;10.004;2023-02-14T11:52:56;8.80;99.90
45066;DHT22;30830;53.704;10.004;2023-02-14T11:55:29;8.80;99.90
45066;DHT22;30830;53.704;10.004;2023-02-14T11:57:57;8.90;99.90
45066;DHT22;30830;53.704;10.004;2023-02-14T12:00:24;8.90;99.90
45066;DHT22;30830;53.704;10.004;2023-02-14T12:02:52;8.90;99.90
45066;DHT22;30830;53.704;10.004;2023-02-14T12:05:31;8.90;99.90
45066;DHT22;30830;53.704;10.004;2023-02-14T12:08:00;8.90;99.90
45066;DHT22;30830;53.704;10.004;2023-02-14T12:10:34;8.90;99.90
45066;DHT22;30830;53.704;10.004;2023-02-14T12:15:48;9.00;99.90
45066;DHT22;30830;53.704;10.004;2023-02-14T12:18:39;9.00;99.90
45066;DHT22;30830;53.704;10.004;2023-02-14T12:26:53;9.00;99.90
45066;DHT22;30830;53.704;10.004;2023-02-14T12:29:32;9.00;99.90
45066;DHT22;30830;53.704;10.004;2023-02-14T12:32:14;9.10;99.90
45066;DHT22;30830;53.704;10.004;2023-02-14T12:34:40;9.10;99.90
45066;DHT22;30830;53.704;10.004;2023-02-14T12:37:14;9.10;99.90
45066;DHT22;30830;53.704;10.004;2023-02-14T12:58:21;9.30;99.90
45066;DHT22;30830;53.704;10.004;2023-02-14T13:03:40;9.30;99.90
45066;DHT22;30830;53.704;10.004;2023-02-14T13:06:35;9.30;99.90
45066;DHT22;30830;53.704;10.004;2023-02-14T13:14:29;9.40;99.90
45066;DHT22;30830;53.704;10.004;2023-02-14T13:22:29;9.40;99.90
45066;DHT22;30830;53.704;10.004;2023-02-14T13:25:17;9.40;99.90
45066;DHT22;30830;53.704;10.004;2023-02-14T13:27:46;9.40;99.90
45066;DHT22;30830;53.704;10.004;2023-02-14T13:30:29;9.40;99.90
45066;DHT22;30830;53.704;10.004;2023-02-14T13:33:00;9.50;99.90
45066;DHT22;30830;53.704;10.004;2023-02-14T13:35:28;9.50;99.90
45066;DHT22;30830;53.704;10.004;2023-02-14T13:37:57;9.50;99.90
45066;DHT22;30830;53.704;10.004;2023-02-14T13:40:26;9.50;99.90
45066;DHT22;30830;53.704;10.004;2023-02-14T13:42:57;9.50;99.90
45066;DHT22;30830;53.704;10.004;2023-02-14T13:48:09;9.60;99.90
45066;DHT22;30830;53.704;10.004;2023-02-14T13:53:44;9.60;99.90
45066;DHT22;30830;53.704;10.004;2023-02-14T13:58:46;9.70;99.90
45066;DHT22;30830;53.704;10.004;2023-02-14T14:01:32;9.60;99.90
45066;DHT22;30830;53.704;10.004;2023-02-14T14:04:05;9.60;99.90
45066;DHT22;30830;53.704;10.004;2023-02-14T14:22:54;9.60;99.90
45066;DHT22;30830;53.704;10.004;2023-02-14T14:25:40;9.60;99.90
45066;DHT22;30830;53.704;10.004;2023-02-14T14:28:26;9.60;99.90
45066;DHT22;30830;53.704;10.004;2023-02-14T14:30:53;9.50;99.90
45066;DHT22;30830;53.704;10.004;2023-02-14T14:36:00;9.50;99.90
45066;DHT22;30830;53.704;10.004;2023-02-14T14:38:27;9.40;99.90
45066;DHT22;30830;53.704;10.004;2023-02-14T14:40:53;9.50;99.90
45066;DHT22;30830;53.704;10.004;2023-02-14T14:43:34;9.40;99.90
45066;DHT22;30830;53.704;10.004;2023-02-14T14:46:02;9.40;99.90
45066;DHT22;30830;53.704;10.004;2023-02-14T14:50:57;9.40;99.90
45066;DHT22;30830;53.704;10.004;2023-02-14T14:56:25;9.40;99.90
45066;DHT22;30830;53.704;10.004;2023-02-14T14:58:52;9.40;99.90
45066;DHT22;30830;53.704;10.004;2023-02-14T15:01:37;9.30;99.90
45066;DHT22;30830;53.704;10.004;2023-02-14T15:06:39;9.30;99.90
45066;DHT22;30830;53.704;10.004;2023-02-14T15:09:20;9.20;99.90
45066;DHT22;30830;53.704;10.004;2023-02-14T15:11:46;9.20;99.90
45066;DHT22;30830;53.704;10.004;2023-02-14T15:14:34;9.10;99.90
45066;DHT22;30830;53.704;10.004;2023-02-14T15:17:18;9.10;99.90
45066;DHT22;30830;53.704;10.004;2023-02-14T15:19:48;9.10;99.90
45066;DHT22;30830;53.704;10.004;2023-02-14T15:24:50;9.00;99.90
45066;DHT22;30830;53.704;10.004;2023-02-14T15:27:19;9.00;99.90
45066;DHT22;30830;53.704;10.004;2023-02-14T15:30:04;9.00;99.90
45066;DHT22;30830;53.704;10.004;2023-02-14T15:32:34;8.90;99.90
45066;DHT22;30830;53.704;10.004;2023-02-14T15:35:02;8.90;99.90
45066;DHT22;30830;53.704;10.004;2023-02-14T15:37:29;8.80;99.90
45066;DHT22;30830;53.704;10.004;2023-02-14T15:39:55;8.80;99.90
45066;DHT22;30830;53.704;10.004;2023-02-14T15:42:27;8.70;99.90
45066;DHT22;30830;53.704;10.004;2023-02-14T15:45:32;8.70;99.90
45066;DHT22;30830;53.704;10.004;2023-02-14T15:48:04;8.70;99.90
45066;DHT22;30830;53.704;10.004;2023-02-14T15:50:33;8.70;99.90
45066;DHT22;30830;53.704;10.004;2023-02-14T15:55:45;8.60;99.90
45066;DHT22;30830;53.704;10.004;2023-02-14T15:58:25;8.50;99.90
45066;DHT22;30830;53.704;10.004;2023-02-14T16:00:53;8.50;99.90
45066;DHT22;30830;53.704;10.004;2023-02-14T16:03:27;8.40;99.90
45066;DHT22;30830;53.704;10.004;2023-02-14T16:05:53;8.40;99.90
45066;DHT22;30830;53.704;10.004;2023-02-14T16:08:32;8.30;99.90
45066;DHT22;30830;53.704;10.004;2023-02-14T16:11:14;8.20;99.90
45066;DHT22;30830;53.704;10.004;2023-02-14T16:13:50;8.20;99.90
45066;DHT22;30830;53.704;10.004;2023-02-14T16:16:15;8.20;99.90
45066;DHT22;30830;53.704;10.004;2023-02-14T16:18:53;8.10;99.90
45066;DHT22;30830;53.704;10.004;2023-02-14T16:21:25;8.10;99.90
45066;DHT22;30830;53.704;10.004;2023-02-14T16:26:36;8.00;99.90
45066;DHT22;30830;53.704;10.004;2023-02-14T16:29:09;7.90;99.90
45066;DHT22;30830;53.704;10.004;2023-02-14T16:31:42;7.90;99.90
45066;DHT22;30830;53.704;10.004;2023-02-14T16:34:12;7.80;99.90
45066;DHT22;30830;53.704;10.004;2023-02-14T16:36:39;7.80;99.90
45066;DHT22;30830;53.704;10.004;2023-02-14T16:39:05;7.70;99.90
45066;DHT22;30830;53.704;10.004;2023-02-14T16:41:35;7.70;99.90
45066;DHT22;30830;53.704;10.004;2023-02-14T16:44:01;7.60;99.90
45066;DHT22;30830;53.704;10.004;2023-02-14T16:46:31;7.50;99.90
45066;DHT22;30830;53.704;10.004;2023-02-14T16:48:59;7.50;99.90
45066;DHT22;30830;53.704;10.004;2023-02-14T16:51:31;7.40;99.90
45066;DHT22;30830;53.704;10.004;2023-02-14T16:54:03;7.30;99.90
45066;DHT22;30830;53.704;10.004;2023-02-14T16:59:14;7.30;99.90
45066;DHT22;30830;53.704;10.004;2023-02-14T17:01:40;7.20;99.90
45066;DHT22;30830;53.704;10.004;2023-02-14T17:04:05;7.20;99.90
45066;DHT22;30830;53.704;10.004;2023-02-14T17:06:35;7.10;99.90
45066;DHT22;30830;53.704;10.004;2023-02-14T17:09:05;7.10;99.90
45066;DHT22;30830;53.704;10.004;2023-02-14T17:11:36;7.00;99.90
45066;DHT22;30830;53.704;10.004;2023-02-14T17:14:03;7.00;99.90
45066;DHT22;30830;53.704;10.004;2023-02-14T17:16:29;6.90;99.90
45066;DHT22;30830;53.704;10.004;2023-02-14T17:18:55;6.90;99.90
45066;DHT22;30830;53.704;10.004;2023-02-14T17:21:22;6.80;99.90
45066;DHT22;30830;53.704;10.004;2023-02-14T17:23:48;6.80;99.90
45066;DHT22;30830;53.704;10.004;2023-02-14T17:26:14;6.80;99.90
45066;DHT22;30830;53.704;10.004;2023-02-14T17:28:42;6.80;99.90
45066;DHT22;30830;53.704;10.004;2023-02-14T17:31:08;6.80;99.90
45066;DHT22;30830;53.704;10.004;2023-02-14T17:33:34;6.70;99.90
45066;DHT22;30830;53.704;10.004;2023-02-14T17:36:04;6.60;99.90
45066;DHT22;30830;53.704;10.004;2023-02-14T17:38:31;6.60;99.90
45066;DHT22;30830;53.704;10.004;2023-02-14T17:40:57;6.60;99.90
45066;DHT22;30830;53.704;10.004;2023-02-14T17:43:23;6.60;99.90
45066;DHT22;30830;53.704;10.004;2023-02-14T17:45:48;6.60;99.90
45066;DHT22;30830;53.704;10.004;2023-02-14T17:48:14;6.50;99.90
45066;DHT22;30830;53.704;10.004;2023-02-14T17:50:39;6.50;99.90
45066;DHT22;30830;53.704;10.004;2023-02-14T17:53:05;6.50;99.90
45066;DHT22;30830;53.704;10.004;2023-02-14T17:55:31;6.50;99.90
45066;DHT22;30830;53.704;10.004;2023-02-14T17:57:56;6.50;99.90
45066;DHT22;30830;53.704;10.004;2023-02-14T18:00:22;6.40;99.90
45066;DHT22;30830;53.704;10.004;2023-02-14T18:02:48;6.40;99.90
45066;DHT22;30830;53.704;10.004;2023-02-14T18:05:15;6.30;99.90
45066;DHT22;30830;53.704;10.004;2023-02-14T18:07:41;6.30;99.90
45066;DHT22;30830;53.704;10.004;2023-02-14T18:10:07;6.30;99.90
45066;DHT22;30830;53.704;10.004;2023-02-14T18:12:33;6.20;99.90
45066;DHT22;30830;53.704;10.004;2023-02-14T18:14:59;6.20;99.90
45066;DHT22;30830;53.704;10.004;2023-02-14T18:17:24;6.20;99.90
45066;DHT22;30830;53.704;10.004;2023-02-14T18:19:50;6.10;99.90
45066;DHT22;30830;53.704;10.004;2023-02-14T18:22:15;6.10;99.90
45066;DHT22;30830;53.704;10.004;2023-02-14T18:24:41;6.10;99.90
45066;DHT22;30830;53.704;10.004;2023-02-14T18:27:06;6.00;99.90
45066;DHT22;30830;53.704;10.004;2023-02-14T18:29:33;6.00;99.90
45066;DHT22;30830;53.704;10.004;2023-02-14T18:31:59;6.00;99.90
45066;DHT22;30830;53.704;10.004;2023-02-14T18:34:25;5.90;99.90